createdAt,value
2023-01-10T00:06:28.995Z,10.00
2023-01-10T00:21:33.517Z,10.01
2023-01-10T00:36:35.075Z,10.00
2023-01-10T00:51:36.624Z,10.19
2023-01-10T01:06:38.123Z,9.72
2023-01-10T01:21:39.599Z,10.06
2023-01-10T01:36:41.128Z,9.70
2023-01-10T01:51:45.934Z,9.66
2023-01-10T02:06:49.220Z,9.79
2023-01-10T02:22:12.420Z,10.12
2023-01-10T02:37:20.231Z,9.71
2023-01-10T02:52:30.338Z,10.06
2023-01-10T03:07:34.800Z,9.93
2023-01-10T03:22:37.729Z,9.77
2023-01-10T03:37:39.276Z,9.62
2023-01-10T03:52:41.787Z,9.62
2023-01-10T04:07:43.308Z,9.67
2023-01-10T04:22:45.153Z,9.83
2023-01-10T04:37:46.658Z,9.55
2023-01-10T04:52:48.169Z,9.85
2023-01-10T05:07:49.721Z,9.64
2023-01-10T05:22:51.223Z,9.71
2023-01-10T05:37:54.029Z,9.54
2023-01-10T05:52:55.646Z,9.58
2023-01-10T06:07:57.139Z,9.55
2023-01-10T06:23:01.124Z,9.54
2023-01-10T06:38:02.957Z,9.51
2023-01-10T06:53:05.081Z,9.52
2023-01-10T07:08:06.678Z,9.51
2023-01-10T07:23:09.466Z,9.67
2023-01-10T07:38:10.991Z,9.58
2023-01-10T07:53:12.528Z,9.72
2023-01-10T08:08:14.275Z,9.81
2023-01-10T08:23:16.214Z,9.82
2023-01-10T08:38:17.741Z,9.84
2023-01-10T08:53:19.249Z,9.88
2023-01-10T09:08:20.798Z,9.85
2023-01-10T09:23:23.164Z,9.96
2023-01-10T09:38:24.910Z,9.86
2023-01-10T09:53:28.087Z,9.73
2023-01-10T10:08:29.950Z,9.86
2023-01-10T10:23:43.483Z,9.53
2023-01-10T10:38:46.597Z,9.54
2023-01-10T10:53:48.470Z,9.89
2023-01-10T11:08:52.530Z,9.97
2023-01-10T11:23:54.178Z,9.91
2023-01-10T11:39:00.204Z,9.93
2023-01-10T11:54:03.742Z,9.72
2023-01-10T12:09:05.285Z,9.93
2023-01-10T12:24:11.811Z,9.74
2023-01-10T12:39:23.775Z,9.60
2023-01-10T12:54:28.505Z,9.83
2023-01-10T13:09:31.163Z,9.80
2023-01-10T13:24:33.098Z,9.84
2023-01-10T13:39:34.774Z,9.78
2023-01-10T13:54:36.293Z,9.67
2023-01-10T14:09:44.781Z,9.92
2023-01-10T14:24:50.818Z,9.75
2023-01-10T14:39:54.071Z,9.62
2023-01-10T14:55:11.809Z,9.60
2023-01-10T15:10:28.245Z,9.55
2023-01-10T15:25:38.040Z,9.57
2023-01-10T15:40:40.735Z,9.58
2023-01-10T15:55:47.489Z,9.57
2023-01-10T16:10:52.631Z,9.63
2023-01-10T16:25:57.865Z,9.80
2023-01-10T16:41:00.554Z,9.55
2023-01-10T16:56:02.061Z,9.74
2023-01-10T17:11:06.589Z,9.67
2023-01-10T17:26:08.542Z,9.44
2023-01-10T17:41:10.241Z,9.44
2023-01-10T17:56:11.818Z,9.40
2023-01-10T18:11:13.424Z,9.40
2023-01-10T18:26:15.041Z,9.39
2023-01-10T18:41:16.910Z,9.39
2023-01-10T18:56:18.512Z,9.38
2023-01-10T19:11:20.240Z,9.39
2023-01-10T19:26:21.924Z,9.36
2023-01-10T19:41:26.951Z,9.38
2023-01-10T19:56:28.466Z,9.52
2023-01-10T20:11:37.841Z,9.50
2023-01-10T20:26:39.585Z,9.49
2023-01-10T20:41:41.110Z,9.47
2023-01-10T20:56:43.319Z,9.46
2023-01-10T21:11:59.950Z,9.46
2023-01-10T21:27:06.425Z,9.46
2023-01-10T21:42:28.274Z,9.40
2023-01-10T21:57:30.705Z,9.40
2023-01-10T22:12:32.270Z,9.41
2023-01-10T22:27:33.796Z,9.41
2023-01-10T22:42:35.351Z,9.40
2023-01-10T22:57:46.729Z,9.28
2023-01-10T23:12:48.891Z,9.28
2023-01-10T23:27:50.393Z,9.34
2023-01-10T23:42:51.856Z,9.33
2023-01-10T23:57:53.634Z,9.34
